Time;durP1;ratioP1;P1;durP2;ratioP2;P2;SDS_P1;SDS_P2;PMS_P1;PMS_P2;Temp;Humidity;BMP_temperature;BMP_pressure;BME280_temperature;BME280_humidity;BME280_pressure;Samples;Min_cycle;Max_cycle;Signal;HPM_P1;HPM_P2
2022/08/09 00:01:23;;;;;;;2.95;2.60;;;;;;;;;;5015316;28;20022;-43
2022/08/09 00:03:48;;;;;;;4.88;2.80;;;;;;;;;;5015376;28;20099;-44
2022/08/09 00:06:14;;;;;;;3.95;2.75;;;;;;;;;;5015319;28;20030;-43
2022/08/09 00:08:39;;;;;;;3.05;2.70;;;;;;;;;;5014961;28;20029;-43
2022/08/09 00:11:05;;;;;;;5.22;2.75;;;;;;;;;;5014144;28;20044;-44
2022/08/09 00:13:30;;;;;;;3.97;2.85;;;;;;;;;;5015185;28;20041;-43
2022/08/09 00:15:56;;;;;;;3.42;2.75;;;;;;;;;;5014947;28;20084;-45
2022/08/09 00:18:21;;;;;;;3.45;2.90;;;;;;;;;;5014875;28;20503;-46
2022/08/09 00:20:47;;;;;;;5.35;2.95;;;;;;;;;;5014769;28;20443;-44
2022/08/09 00:23:12;;;;;;;5.65;3.45;;;;;;;;;;5014970;28;20030;-45
2022/08/09 00:25:38;;;;;;;4.00;3.20;;;;;;;;;;5014883;28;20060;-44
2022/08/09 00:28:05;;;;;;;3.60;3.22;;;;;;;;;;5014593;28;20493;-43
2022/08/09 00:30:32;;;;;;;4.72;3.40;;;;;;;;;;5014735;28;20076;-43
2022/08/09 00:32:58;;;;;;;4.65;2.97;;;;;;;;;;5014773;28;20033;-44
2022/08/09 00:35:23;;;;;;;6.60;3.20;;;;;;;;;;5014573;28;20416;-43
2022/08/09 00:37:49;;;;;;;5.10;3.30;;;;;;;;;;5014347;28;20025;-44
2022/08/09 00:40:14;;;;;;;4.57;3.35;;;;;;;;;;5014346;28;20017;-44
2022/08/09 00:42:40;;;;;;;9.10;3.63;;;;;;;;;;5014228;28;20034;-43
2022/08/09 00:45:06;;;;;;;4.88;3.97;;;;;;;;;;5014491;28;20029;-45
2022/08/09 00:47:32;;;;;;;5.35;4.20;;;;;;;;;;5014087;28;20030;-44
2022/08/09 00:49:58;;;;;;;6.25;4.53;;;;;;;;;;5014076;28;20036;-44
2022/08/09 00:52:25;;;;;;;9.43;5.40;;;;;;;;;;5013962;28;20116;-43
2022/08/09 00:54:52;;;;;;;12.82;5.57;;;;;;;;;;5014255;28;20085;-51
2022/08/09 00:57:18;;;;;;;8.65;5.32;;;;;;;;;;5014072;28;20113;-45
2022/08/09 00:59:44;;;;;;;15.38;7.13;;;;;;;;;;5014343;28;20100;-46
2022/08/09 01:02:10;;;;;;;13.07;7.18;;;;;;;;;;5013963;28;20508;-43
2022/08/09 01:04:59;;;;;;;11.77;7.13;;;;;;;;;;5014237;28;20105;-46
2022/08/09 01:07:42;;;;;;;20.63;7.93;;;;;;;;;;5003766;28;20033;-49
2022/08/09 01:10:21;;;;;;;16.17;7.70;;;;;;;;;;5014146;28;20337;-48
2022/08/09 01:12:56;;;;;;;18.15;7.72;;;;;;;;;;5013778;28;20121;-49
2022/08/09 01:15:25;;;;;;;14.10;8.05;;;;;;;;;;5013932;28;20033;-50
2022/08/09 01:17:58;;;;;;;17.42;8.32;;;;;;;;;;5013645;28;20033;-45
2022/08/09 01:20:39;;;;;;;14.70;7.85;;;;;;;;;;5013737;28;20563;-50
2022/08/09 01:23:15;;;;;;;16.23;8.23;;;;;;;;;;5013687;28;20037;-45
2022/08/09 01:26:18;;;;;;;14.80;7.57;;;;;;;;;;5013821;28;20396;-43
2022/08/09 01:28:49;;;;;;;14.95;8.35;;;;;;;;;;5013493;28;20030;-45
2022/08/09 01:31:19;;;;;;;13.57;8.27;;;;;;;;;;5013585;28;20068;-45
2022/08/09 01:33:46;;;;;;;14.48;8.38;;;;;;;;;;5013268;28;20022;-43
2022/08/09 01:36:20;;;;;;;14.57;8.10;;;;;;;;;;5013375;28;20033;-43
2022/08/09 01:38:48;;;;;;;17.55;8.02;;;;;;;;;;5013637;28;20065;-50
2022/08/09 01:41:31;;;;;;;13.68;8.13;;;;;;;;;;5013365;28;20066;-43
2022/08/09 01:44:02;;;;;;;11.68;8.05;;;;;;;;;;5013156;28;20041;-47
2022/08/09 01:46:32;;;;;;;12.32;7.72;;;;;;;;;;5013464;28;20410;-43
2022/08/09 01:49:01;;;;;;;15.97;8.40;;;;;;;;;;5013464;28;20026;-44
2022/08/09 01:51:29;;;;;;;14.82;7.90;;;;;;;;;;5013193;28;20029;-44
2022/08/09 01:53:55;;;;;;;16.20;8.95;;;;;;;;;;5013369;28;20376;-46
2022/08/09 01:56:23;;;;;;;14.80;7.97;;;;;;;;;;5012977;28;20540;-48
2022/08/09 01:58:51;;;;;;;13.48;7.65;;;;;;;;;;5013158;28;20080;-43
2022/08/09 02:01:18;;;;;;;14.10;8.25;;;;;;;;;;5013231;28;20380;-47
2022/08/09 02:03:45;;;;;;;16.02;8.00;;;;;;;;;;5012940;28;20060;-44
2022/08/09 02:06:12;;;;;;;19.40;8.15;;;;;;;;;;5013158;28;20026;-46
2022/08/09 02:08:43;;;;;;;13.20;7.68;;;;;;;;;;5012725;28;20145;-49
2022/08/09 02:11:11;;;;;;;15.00;8.40;;;;;;;;;;5012756;28;20419;-48
2022/08/09 02:13:38;;;;;;;19.00;8.63;;;;;;;;;;5012788;28;20026;-46
2022/08/09 02:16:06;;;;;;;14.68;7.32;;;;;;;;;;5012658;28;20392;-44
2022/08/09 02:18:34;;;;;;;13.73;7.85;;;;;;;;;;5012978;28;20053;-48
2022/08/09 02:21:08;;;;;;;11.00;6.70;;;;;;;;;;5012650;28;20083;-48
2022/08/09 02:23:55;;;;;;;13.30;7.22;;;;;;;;;;5012953;28;20079;-48
2022/08/09 02:26:21;;;;;;;11.20;6.80;;;;;;;;;;5012565;28;20030;-46
2022/08/09 02:28:52;;;;;;;11.30;6.82;;;;;;;;;;5012668;28;20064;-44
2022/08/09 02:31:22;;;;;;;11.65;6.90;;;;;;;;;;5012668;28;20017;-47
2022/08/09 02:33:50;;;;;;;13.10;7.33;;;;;;;;;;5013291;28;20061;-45
2022/08/09 02:36:21;;;;;;;12.55;7.28;;;;;;;;;;5016744;28;20022;-46
2022/08/09 02:38:50;;;;;;;;;;;;;;;;;;5017085;28;20022;-47
2022/08/09 02:41:27;;;;;;;13.00;6.70;;;;;;;;;;5016623;28;20475;-44
2022/08/09 02:43:59;;;;;;;13.07;6.40;;;;;;;;;;5016884;28;20064;-43
2022/08/09 02:46:28;;;;;;;11.80;7.00;;;;;;;;;;5016572;28;20088;-44
2022/08/09 02:48:57;;;;;;;10.98;6.78;;;;;;;;;;5016768;28;20026;-43
2022/08/09 02:51:25;;;;;;;15.05;7.10;;;;;;;;;;5016309;28;20030;-51
2022/08/09 02:53:57;;;;;;;15.05;6.75;;;;;;;;;;5016643;28;20384;-44
2022/08/09 02:56:26;;;;;;;16.77;7.25;;;;;;;;;;5016396;28;20037;-43
2022/08/09 02:58:52;;;;;;;16.13;7.57;;;;;;;;;;5016560;28;20383;-46
2022/08/09 03:01:18;;;;;;;14.95;8.00;;;;;;;;;;5016249;28;20116;-43
2022/08/09 03:03:44;;;;;;;20.52;7.10;;;;;;;;;;4998632;28;20026;-50
2022/08/09 03:06:13;;;;;;;21.48;7.65;;;;;;;;;;5016174;28;20128;-43
2022/08/09 03:08:43;;;;;;;14.75;7.50;;;;;;;;;;5016361;28;20423;-46
2022/08/09 03:11:11;;;;;;;22.63;7.18;;;;;;;;;;5016089;28;20026;-44
2022/08/09 03:13:37;;;;;;;11.82;6.85;;;;;;;;;;5016284;28;20079;-45
2022/08/09 03:16:03;;;;;;;13.93;7.68;;;;;;;;;;5015972;28;20022;-43
2022/08/09 03:18:29;;;;;;;16.08;8.20;;;;;;;;;;5016166;28;20169;-43
2022/08/09 03:20:57;;;;;;;12.27;7.65;;;;;;;;;;5015836;28;20037;-44
2022/08/09 03:23:22;;;;;;;12.45;7.65;;;;;;;;;;5015920;28;20026;-43
2022/08/09 03:25:48;;;;;;;11.20;7.38;;;;;;;;;;5015774;28;20380;-44
2022/08/09 03:28:16;;;;;;;10.27;7.00;;;;;;;;;;5015948;28;20125;-45
2022/08/09 03:30:41;;;;;;;11.77;7.63;;;;;;;;;;4998089;28;20025;-44
2022/08/09 03:33:09;;;;;;;15.02;8.15;;;;;;;;;;5015565;28;20080;-44
2022/08/09 03:35:36;;;;;;;15.60;7.57;;;;;;;;;;5015471;28;20484;-43
2022/08/09 03:38:02;;;;;;;11.57;7.50;;;;;;;;;;5015457;28;20084;-43
2022/08/09 03:40:27;;;;;;;13.73;8.25;;;;;;;;;;5015674;28;20404;-45
2022/08/09 03:42:52;;;;;;;14.82;8.27;;;;;;;;;;5015718;28;20037;-45
2022/08/09 03:45:18;;;;;;;12.38;8.15;;;;;;;;;;5015298;28;20030;-45
2022/08/09 03:47:43;;;;;;;13.27;8.02;;;;;;;;;;5015388;28;20030;-45
2022/08/09 03:50:11;;;;;;;14.43;7.93;;;;;;;;;;5015622;28;20064;-44
2022/08/09 03:52:39;;;;;;;13.32;9.52;;;;;;;;;;5015139;28;20053;-48
2022/08/09 03:55:07;;;;;;;14.23;8.93;;;;;;;;;;5015410;28;20026;-45
2022/08/09 03:57:32;;;;;;;15.25;9.38;;;;;;;;;;5015071;28;20030;-44
2022/08/09 03:59:58;;;;;;;12.95;8.82;;;;;;;;;;5015436;28;20038;-44
2022/08/09 04:02:26;;;;;;;13.23;9.23;;;;;;;;;;5015139;28;20052;-44
2022/08/09 04:04:52;;;;;;;14.10;9.27;;;;;;;;;;5015342;28;20045;-45
2022/08/09 04:07:17;;;;;;;14.88;9.27;;;;;;;;;;5015315;28;20531;-44
2022/08/09 04:09:42;;;;;;;17.83;8.80;;;;;;;;;;5015248;28;20022;-43
2022/08/09 04:12:08;;;;;;;18.02;8.75;;;;;;;;;;5015146;28;20026;-50
2022/08/09 04:14:34;;;;;;;13.95;9.23;;;;;;;;;;5014849;28;20108;-53
2022/08/09 04:17:00;;;;;;;14.40;8.98;;;;;;;;;;5015143;28;20034;-52
2022/08/09 04:19:25;;;;;;;13.18;8.85;;;;;;;;;;5015084;28;20541;-43
2022/08/09 04:21:51;;;;;;;15.10;8.40;;;;;;;;;;5014772;28;20033;-46
2022/08/09 04:24:16;;;;;;;13.07;8.35;;;;;;;;;;5014613;28;20118;-49
2022/08/09 04:26:42;;;;;;;12.00;9.10;;;;;;;;;;5014739;28;20052;-49
2022/08/09 04:29:08;;;;;;;12.15;8.13;;;;;;;;;;5014685;28;20022;-45
2022/08/09 04:31:34;;;;;;;11.98;8.25;;;;;;;;;;5014664;28;20084;-52
2022/08/09 04:34:00;;;;;;;13.70;9.40;;;;;;;;;;5014619;28;20034;-47
2022/08/09 04:36:28;;;;;;;11.35;8.32;;;;;;;;;;5014316;28;20026;-56
2022/08/09 04:38:56;;;;;;;16.17;8.98;;;;;;;;;;5014316;28;20026;-47
2022/08/09 04:41:22;;;;;;;14.25;8.88;;;;;;;;;;5014320;28;20480;-49
2022/08/09 04:43:48;;;;;;;16.58;8.63;;;;;;;;;;5014459;28;20053;-51
2022/08/09 04:46:13;;;;;;;15.43;8.50;;;;;;;;;;5014466;28;20022;-50
2022/08/09 04:48:39;;;;;;;15.25;9.40;;;;;;;;;;5014211;28;20030;-52
2022/08/09 04:51:05;;;;;;;13.80;9.20;;;;;;;;;;5014146;28;20029;-51
2022/08/09 04:53:30;;;;;;;15.85;9.30;;;;;;;;;;5013869;28;20057;-50
2022/08/09 04:55:56;;;;;;;12.07;8.32;;;;;;;;;;5014267;28;20079;-49
2022/08/09 04:58:21;;;;;;;12.77;8.75;;;;;;;;;;4996218;28;20373;-49
2022/08/09 05:00:47;;;;;;;18.73;8.70;;;;;;;;;;5013977;28;20377;-45
2022/08/09 05:03:12;;;;;;;15.95;8.43;;;;;;;;;;5014117;28;20025;-44
2022/08/09 05:05:38;;;;;;;10.35;7.88;;;;;;;;;;5014190;28;20033;-50
2022/08/09 05:08:04;;;;;;;15.77;8.75;;;;;;;;;;5014126;28;20022;-45
2022/08/09 05:10:29;;;;;;;13.25;7.60;;;;;;;;;;5013811;28;20232;-47
2022/08/09 05:12:55;;;;;;;8.70;7.60;;;;;;;;;;5013228;28;20056;-48
2022/08/09 05:15:20;;;;;;;14.95;8.48;;;;;;;;;;5011622;28;20038;-47
2022/08/09 05:17:46;;;;;;;11.35;7.40;;;;;;;;;;5011892;28;20040;-48
2022/08/09 05:20:11;;;;;;;15.57;7.55;;;;;;;;;;5011960;28;20034;-47
2022/08/09 05:22:36;;;;;;;11.05;7.50;;;;;;;;;;5013429;28;20018;-49
2022/08/09 05:25:03;;;;;;;15.50;7.95;;;;;;;;;;5013491;28;20041;-44
2022/08/09 05:27:29;;;;;;;11.60;7.15;;;;;;;;;;5013486;28;20049;-51
2022/08/09 05:29:54;;;;;;;12.70;7.65;;;;;;;;;;5013720;28;20053;-45
2022/08/09 05:32:21;;;;;;;12.95;7.57;;;;;;;;;;5013410;28;20058;-47
2022/08/09 05:34:46;;;;;;;13.55;7.70;;;;;;;;;;5013604;28;20025;-48
2022/08/09 05:37:11;;;;;;;12.85;7.80;;;;;;;;;;5013295;28;20531;-53
2022/08/09 05:39:39;;;;;;;10.05;6.95;;;;;;;;;;5013144;28;20026;-53
2022/08/09 05:42:05;;;;;;;11.32;7.28;;;;;;;;;;5013096;28;20540;-46
2022/08/09 05:44:31;;;;;;;11.07;7.32;;;;;;;;;;5013185;28;20129;-46
2022/08/09 05:46:56;;;;;;;18.98;12.48;;;;;;;;;;5012794;28;20032;-51
2022/08/09 05:49:22;;;;;;;10.55;6.82;;;;;;;;;;5012045;28;20104;-50
2022/08/09 05:51:47;;;;;;;11.88;7.07;;;;;;;;;;5010259;28;20050;-54
2022/08/09 05:54:12;;;;;;;13.25;6.80;;;;;;;;;;5010795;28;20037;-55
2022/08/09 05:56:38;;;;;;;8.98;7.15;;;;;;;;;;5012104;28;20038;-48
2022/08/09 05:59:03;;;;;;;11.98;6.90;;;;;;;;;;5011720;28;20493;-52
2022/08/09 06:01:29;;;;;;;10.63;6.50;;;;;;;;;;5011696;28;20038;-51
2022/08/09 06:03:55;;;;;;;10.88;6.65;;;;;;;;;;5013104;28;20056;-51
2022/08/09 06:06:22;;;;;;;9.93;6.38;;;;;;;;;;5012917;28;20048;-51
2022/08/09 06:08:48;;;;;;;8.65;5.90;;;;;;;;;;5012053;28;20064;-51
2022/08/09 06:11:13;;;;;;;10.73;6.15;;;;;;;;;;5012825;28;20061;-51
2022/08/09 06:13:39;;;;;;;9.10;5.78;;;;;;;;;;5013179;28;20038;-47
2022/08/09 06:16:05;;;;;;;8.85;5.80;;;;;;;;;;5012921;28;20105;-51
2022/08/09 06:18:31;;;;;;;9.05;5.68;;;;;;;;;;5013006;28;20025;-52
2022/08/09 06:20:57;;;;;;;7.07;5.75;;;;;;;;;;5012791;28;20489;-49
2022/08/09 06:23:24;;;;;;;8.00;5.35;;;;;;;;;;5012659;28;20034;-52
2022/08/09 06:25:49;;;;;;;8.68;5.72;;;;;;;;;;5012891;28;20033;-48
2022/08/09 06:28:15;;;;;;;9.52;5.15;;;;;;;;;;5012946;28;20049;-51
2022/08/09 06:30:41;;;;;;;8.10;4.93;;;;;;;;;;5012563;28;20468;-49
2022/08/09 06:33:07;;;;;;;5.97;4.85;;;;;;;;;;5012558;28;20033;-50
2022/08/09 06:35:34;;;;;;;7.75;4.78;;;;;;;;;;5012760;28;20034;-48
2022/08/09 06:37:59;;;;;;;10.95;4.75;;;;;;;;;;5012445;28;20057;-50
2022/08/09 06:40:25;;;;;;;8.88;4.75;;;;;;;;;;5012606;28;20026;-53
2022/08/09 06:42:51;;;;;;;7.43;5.13;;;;;;;;;;5012849;28;20048;-49
2022/08/09 06:45:17;;;;;;;9.07;5.13;;;;;;;;;;5013047;28;20110;-51
2022/08/09 06:47:42;;;;;;;9.70;4.28;;;;;;;;;;5012487;28;20030;-52
2022/08/09 06:50:09;;;;;;;9.50;4.65;;;;;;;;;;5012443;28;20048;-53
2022/08/09 06:52:34;;;;;;;10.93;4.57;;;;;;;;;;5012073;28;20053;-46
2022/08/09 06:55:00;;;;;;;9.48;4.90;;;;;;;;;;5012307;28;20042;-49
2022/08/09 06:57:26;;;;;;;8.35;4.72;;;;;;;;;;5012421;28;20076;-50
2022/08/09 06:59:52;;;;;;;9.40;4.95;;;;;;;;;;5012346;28;20465;-52
2022/08/09 07:02:18;;;;;;;11.73;4.93;;;;;;;;;;5012642;28;20030;-50
2022/08/09 07:04:43;;;;;;;7.28;4.65;;;;;;;;;;5012362;28;20385;-48
2022/08/09 07:07:09;;;;;;;5.25;4.28;;;;;;;;;;5012297;28;20030;-50
2022/08/09 07:09:34;;;;;;;7.43;4.53;;;;;;;;;;5012515;28;20026;-50
2022/08/09 07:12:00;;;;;;;6.82;4.30;;;;;;;;;;5012490;28;20381;-53
2022/08/09 07:14:25;;;;;;;11.73;4.30;;;;;;;;;;5012143;28;20085;-54
2022/08/09 07:16:51;;;;;;;12.98;4.63;;;;;;;;;;5012150;28;20022;-54
2022/08/09 07:19:16;;;;;;;7.80;4.05;;;;;;;;;;5012202;28;20046;-48
2022/08/09 07:21:42;;;;;;;8.32;4.32;;;;;;;;;;5015959;28;20065;-47
2022/08/09 07:24:08;;;;;;;9.18;4.53;;;;;;;;;;5015773;28;20477;-54
2022/08/09 07:26:34;;;;;;;6.80;4.05;;;;;;;;;;5016095;28;20034;-53
2022/08/09 07:29:01;;;;;;;6.22;4.03;;;;;;;;;;5015698;28;20398;-50
2022/08/09 07:31:27;;;;;;;8.77;3.70;;;;;;;;;;5015990;28;20037;-51
2022/08/09 07:33:52;;;;;;;7.50;4.18;;;;;;;;;;5016154;28;20030;-50
2022/08/09 07:36:18;;;;;;;11.15;4.00;;;;;;;;;;5015497;28;20053;-46
2022/08/09 07:38:43;;;;;;;9.48;3.97;;;;;;;;;;5015461;28;20173;-53
2022/08/09 07:41:09;;;;;;;8.85;3.90;;;;;;;;;;5015508;28;20026;-50
2022/08/09 07:43:35;;;;;;;12.07;4.35;;;;;;;;;;5015465;28;20033;-50
2022/08/09 07:46:00;;;;;;;4.55;3.60;;;;;;;;;;5015360;28;20049;-50
2022/08/09 07:48:26;;;;;;;5.88;3.85;;;;;;;;;;5015352;28;20153;-53
2022/08/09 07:50:51;;;;;;;10.77;3.58;;;;;;;;;;5015258;28;20029;-52
2022/08/09 07:53:17;;;;;;;6.72;3.65;;;;;;;;;;5014913;28;20065;-46
2022/08/09 07:55:42;;;;;;;8.65;3.70;;;;;;;;;;5015142;28;20108;-52
2022/08/09 07:58:08;;;;;;;7.47;3.35;;;;;;;;;;5015141;28;20068;-53
2022/08/09 08:00:35;;;;;;;8.32;3.80;;;;;;;;;;5015143;28;20030;-53
2022/08/09 08:03:01;;;;;;;12.75;4.05;;;;;;;;;;5014822;28;20029;-51
2022/08/09 08:05:27;;;;;;;7.05;3.55;;;;;;;;;;5015213;28;20532;-51
2022/08/09 08:07:56;;;;;;;5.88;3.50;;;;;;;;;;5015010;28;20525;-51
2022/08/09 08:10:22;;;;;;;5.15;3.30;;;;;;;;;;5015192;28;20066;-50
2022/08/09 08:12:47;;;;;;;9.77;4.10;;;;;;;;;;5014922;28;20057;-50
2022/08/09 08:15:21;;;;;;;10.15;3.80;;;;;;;;;;5015089;28;20026;-50
2022/08/09 08:17:51;;;;;;;5.97;3.60;;;;;;;;;;5015100;28;20022;-50
2022/08/09 08:20:21;;;;;;;5.80;3.30;;;;;;;;;;5015070;28;20026;-52
2022/08/09 08:22:47;;;;;;;10.57;3.72;;;;;;;;;;5014810;28;20026;-51
2022/08/09 08:25:12;;;;;;;6.75;3.38;;;;;;;;;;5014983;28;20447;-52
2022/08/09 08:27:38;;;;;;;5.45;3.45;;;;;;;;;;5014885;28;20054;-50
2022/08/09 08:30:04;;;;;;;5.80;3.15;;;;;;;;;;5014872;28;20029;-52
2022/08/09 08:32:30;;;;;;;8.57;3.08;;;;;;;;;;5013755;28;20033;-52
2022/08/09 08:34:59;;;;;;;5.60;3.25;;;;;;;;;;5014479;28;20030;-52
2022/08/09 08:37:28;;;;;;;;;;;;;;;;;;5015284;28;20125;-52
2022/08/09 08:39:53;;;;;;;5.40;2.97;;;;;;;;;;5014433;28;19909;-50
2022/08/09 08:42:20;;;;;;;6.22;3.45;;;;;;;;;;4996796;28;20033;-52
2022/08/09 08:44:51;;;;;;;11.48;3.38;;;;;;;;;;5014369;28;20057;-51
2022/08/09 08:47:17;;;;;;;5.28;2.97;;;;;;;;;;5014666;28;20121;-51
2022/08/09 08:49:43;;;;;;;6.90;3.22;;;;;;;;;;5014471;28;20477;-51
2022/08/09 08:52:09;;;;;;;9.63;3.53;;;;;;;;;;5014247;28;20081;-52
2022/08/09 08:54:35;;;;;;;7.88;3.65;;;;;;;;;;5014124;28;20568;-51
2022/08/09 08:57:02;;;;;;;5.38;3.47;;;;;;;;;;5014042;28;20116;-52
2022/08/09 08:59:28;;;;;;;6.72;2.88;;;;;;;;;;5014308;28;20351;-51
2022/08/09 09:01:53;;;;;;;5.40;3.00;;;;;;;;;;5014344;28;20049;-53
2022/08/09 09:04:22;;;;;;;5.57;3.08;;;;;;;;;;5014210;28;20037;-51
2022/08/09 09:06:50;;;;;;;7.47;2.95;;;;;;;;;;5014260;28;20060;-51
2022/08/09 09:09:17;;;;;;;6.50;3.38;;;;;;;;;;5013907;28;20061;-48
2022/08/09 09:11:43;;;;;;;7.03;3.67;;;;;;;;;;5014131;28;20025;-54
2022/08/09 09:14:13;;;;;;;8.20;3.20;;;;;;;;;;5014046;28;20030;-46
2022/08/09 09:16:38;;;;;;;4.10;3.20;;;;;;;;;;5014093;28;20424;-51
2022/08/09 09:19:07;;;;;;;8.00;3.70;;;;;;;;;;5013955;28;20030;-50
2022/08/09 09:21:32;;;;;;;6.47;3.58;;;;;;;;;;5013648;28;20022;-50
2022/08/09 09:24:06;;;;;;;6.70;3.33;;;;;;;;;;5013696;28;20045;-49
2022/08/09 09:26:33;;;;;;;4.80;3.25;;;;;;;;;;5013954;28;20060;-52
2022/08/09 09:29:01;;;;;;;8.52;3.17;;;;;;;;;;5013819;28;20038;-52
2022/08/09 09:31:27;;;;;;;5.75;3.17;;;;;;;;;;5013729;28;20026;-50
2022/08/09 09:34:09;;;;;;;8.20;3.58;;;;;;;;;;5013420;28;20477;-49
2022/08/09 09:36:39;;;;;;;10.63;3.45;;;;;;;;;;5013715;28;20412;-48
2022/08/09 09:39:08;;;;;;;16.58;3.55;;;;;;;;;;5013454;28;20108;-48
2022/08/09 09:41:34;;;;;;;10.93;3.30;;;;;;;;;;5013351;28;20127;-52
2022/08/09 09:44:05;;;;;;;5.20;3.53;;;;;;;;;;5013427;28;20113;-49
2022/08/09 09:46:36;;;;;;;4.07;3.22;;;;;;;;;;5013549;28;20030;-52
2022/08/09 09:49:09;;;;;;;6.18;3.60;;;;;;;;;;5013526;28;20034;-49
2022/08/09 09:51:36;;;;;;;6.10;4.13;;;;;;;;;;5013152;28;20022;-50
2022/08/09 09:54:13;;;;;;;6.18;3.50;;;;;;;;;;5013070;28;20022;-51
2022/08/09 09:56:44;;;;;;;6.25;3.67;;;;;;;;;;5013441;28;20030;-51
2022/08/09 09:59:11;;;;;;;7.40;3.83;;;;;;;;;;5013117;28;20034;-49
2022/08/09 10:01:38;;;;;;;8.90;3.72;;;;;;;;;;5013258;28;20080;-47
2022/08/09 10:04:14;;;;;;;6.78;3.90;;;;;;;;;;5012961;28;20543;-51
2022/08/09 10:06:45;;;;;;;11.15;3.85;;;;;;;;;;5013252;28;20084;-52
2022/08/09 10:09:12;;;;;;;7.88;3.75;;;;;;;;;;5013198;28;20428;-51
2022/08/09 10:11:39;;;;;;;5.57;3.60;;;;;;;;;;4995815;28;20029;-50
2022/08/09 10:14:05;;;;;;;7.05;4.10;;;;;;;;;;5012756;28;20022;-49
2022/08/09 10:16:37;;;;;;;7.78;3.78;;;;;;;;;;5013078;28;20025;-52
2022/08/09 10:19:05;;;;;;;7.05;3.90;;;;;;;;;;5013307;28;20030;-53
2022/08/09 10:21:31;;;;;;;6.45;3.80;;;;;;;;;;5013036;28;20377;-49
2022/08/09 10:24:03;;;;;;;3.70;3.40;;;;;;;;;;5012763;28;20108;-50
2022/08/09 10:26:29;;;;;;;5.18;4.03;;;;;;;;;;5012733;28;20033;-54
2022/08/09 10:28:57;;;;;;;7.60;3.75;;;;;;;;;;5012907;28;20029;-51
2022/08/09 10:31:23;;;;;;;5.32;3.55;;;;;;;;;;5012712;28;20493;-49
2022/08/09 10:33:49;;;;;;;5.03;3.47;;;;;;;;;;5012613;28;20069;-52
2022/08/09 10:36:15;;;;;;;4.40;3.50;;;;;;;;;;5012514;28;20037;-52
2022/08/09 10:38:44;;;;;;;4.45;3.67;;;;;;;;;;5012525;28;20034;-49
2022/08/09 10:41:10;;;;;;;5.53;3.60;;;;;;;;;;5012391;28;20030;-51
2022/08/09 10:43:41;;;;;;;5.15;3.78;;;;;;;;;;4994932;28;20077;-50
2022/08/09 10:46:39;;;;;;;5.45;3.58;;;;;;;;;;5012478;28;20022;-52
2022/08/09 10:49:19;;;;;;;4.88;3.63;;;;;;;;;;5012740;28;20030;-51
2022/08/09 10:51:44;;;;;;;8.18;4.20;;;;;;;;;;5012448;28;20034;-50
2022/08/09 10:54:12;;;;;;;4.82;3.70;;;;;;;;;;5012152;28;20551;-53
2022/08/09 10:56:39;;;;;;;7.25;3.75;;;;;;;;;;5016018;28;20037;-52
2022/08/09 10:59:23;;;;;;;7.95;3.40;;;;;;;;;;5016631;28;20052;-50
2022/08/09 11:01:50;;;;;;;6.35;3.30;;;;;;;;;;5016878;28;20029;-53
2022/08/09 11:04:23;;;;;;;6.03;3.30;;;;;;;;;;5016254;28;20518;-51
2022/08/09 11:06:57;;;;;;;8.00;4.00;;;;;;;;;;5016422;28;20030;-54
2022/08/09 11:09:38;;;;;;;3.97;3.40;;;;;;;;;;5016459;28;20030;-51
2022/08/09 11:12:15;;;;;;;4.53;3.53;;;;;;;;;;5031266;28;20037;-49
2022/08/09 11:14:47;;;;;;;3.50;3.20;;;;;;;;;;5015913;28;20068;-52
2022/08/09 11:17:13;;;;;;;7.18;3.33;;;;;;;;;;5016303;28;20053;-52
2022/08/09 11:19:59;;;;;;;4.00;3.30;;;;;;;;;;5015968;28;20481;-52
2022/08/09 11:22:40;;;;;;;3.63;3.33;;;;;;;;;;5016015;28;20500;-52
2022/08/09 11:25:16;;;;;;;7.07;3.30;;;;;;;;;;5016163;28;20033;-53
2022/08/09 11:27:45;;;;;;;4.75;3.25;;;;;;;;;;5016146;28;20084;-53
2022/08/09 11:30:11;;;;;;;7.00;3.67;;;;;;;;;;5016053;28;20046;-53
2022/08/09 11:32:50;;;;;;;5.53;3.63;;;;;;;;;;5015659;28;20480;-53
2022/08/09 11:35:34;;;;;;;5.53;3.67;;;;;;;;;;5015584;28;20034;-48
2022/08/09 11:38:14;;;;;;;12.13;3.35;;;;;;;;;;4998121;28;20049;-50
2022/08/09 11:40:40;;;;;;;3.75;3.00;;;;;;;;;;5015617;28;20030;-53
2022/08/09 11:43:05;;;;;;;6.50;3.20;;;;;;;;;;5015788;28;20022;-51
2022/08/09 11:45:41;;;;;;;4.18;3.53;;;;;;;;;;5015794;28;20407;-52
2022/08/09 11:48:24;;;;;;;3.85;3.35;;;;;;;;;;5015722;28;20049;-49
2022/08/09 11:50:55;;;;;;;8.52;3.30;;;;;;;;;;5015331;28;20021;-52
2022/08/09 11:53:22;;;;;;;9.38;3.75;;;;;;;;;;5014217;28;20054;-51
2022/08/09 11:55:50;;;;;;;4.53;3.38;;;;;;;;;;5015041;28;20037;-50
2022/08/09 11:58:15;;;;;;;4.93;3.50;;;;;;;;;;5015341;28;20030;-49
2022/08/09 12:00:49;;;;;;;5.30;3.55;;;;;;;;;;5015275;28;20540;-51
2022/08/09 12:03:16;;;;;;;4.55;3.38;;;;;;;;;;5014958;28;20109;-52
2022/08/09 12:05:42;;;;;;;5.10;3.08;;;;;;;;;;5014667;28;20433;-49
2022/08/09 12:08:08;;;;;;;5.38;3.17;;;;;;;;;;5014334;28;20113;-51
2022/08/09 12:10:35;;;;;;;6.47;3.63;;;;;;;;;;5015164;28;20174;-53
2022/08/09 12:13:01;;;;;;;5.15;3.08;;;;;;;;;;4997343;28;20036;-52
2022/08/09 12:15:27;;;;;;;4.47;3.30;;;;;;;;;;4996530;28;20029;-51
2022/08/09 12:17:53;;;;;;;4.22;3.20;;;;;;;;;;5015148;28;20079;-51
2022/08/09 12:20:21;;;;;;;3.45;3.15;;;;;;;;;;5015057;28;20058;-48
2022/08/09 12:22:52;;;;;;;4.68;3.35;;;;;;;;;;5009036;28;20057;-51
2022/08/09 12:25:19;;;;;;;3.17;2.85;;;;;;;;;;5014916;28;20463;-46
2022/08/09 12:27:45;;;;;;;5.78;3.42;;;;;;;;;;5014558;28;20397;-50
2022/08/09 12:30:12;;;;;;;3.67;2.80;;;;;;;;;;5014686;28;20026;-53
2022/08/09 12:32:38;;;;;;;6.72;3.13;;;;;;;;;;5013236;28;20112;-51
2022/08/09 12:35:05;;;;;;;13.73;3.60;;;;;;;;;;5012836;28;20119;-49
2022/08/09 12:37:36;;;;;;;6.32;3.08;;;;;;;;;;5013084;28;20029;-51
2022/08/09 12:40:05;;;;;;;4.47;2.92;;;;;;;;;;5013244;28;20116;-46
2022/08/09 12:42:31;;;;;;;9.32;3.40;;;;;;;;;;5012935;28;20376;-49
2022/08/09 12:44:57;;;;;;;6.05;2.88;;;;;;;;;;5012597;28;20041;-52
2022/08/09 12:47:23;;;;;;;4.13;2.75;;;;;;;;;;5012621;28;20021;-51
2022/08/09 12:52:41;;;;;;;5.28;3.20;;;;;;;;;;5012636;28;20049;-50
2022/08/09 12:55:11;;;;;;;7.45;3.30;;;;;;;;;;5012143;28;20685;-48
2022/08/09 12:57:42;;;;;;;7.18;3.40;;;;;;;;;;5010884;28;20029;-48
2022/08/09 13:00:16;;;;;;;5.32;2.88;;;;;;;;;;5012522;28;20099;-45
2022/08/09 13:03:02;;;;;;;3.00;2.72;;;;;;;;;;5012738;28;20030;-52
2022/08/09 13:05:41;;;;;;;6.70;3.30;;;;;;;;;;5012262;28;20029;-50
2022/08/09 13:08:13;;;;;;;8.48;3.28;;;;;;;;;;5011060;28;20038;-53
2022/08/09 13:11:05;;;;;;;13.77;3.53;;;;;;;;;;5010781;28;20374;-51
2022/08/09 13:13:38;;;;;;;6.85;3.30;;;;;;;;;;5010827;28;20030;-52
2022/08/09 13:16:08;;;;;;;5.63;3.40;;;;;;;;;;5010939;28;20042;-51
2022/08/09 13:18:47;;;;;;;4.15;3.53;;;;;;;;;;5011815;28;20034;-46
2022/08/09 13:21:25;;;;;;;8.70;3.83;;;;;;;;;;5012351;28;20022;-49
2022/08/09 13:24:17;;;;;;;4.07;3.45;;;;;;;;;;5012094;28;20029;-52
2022/08/09 13:26:46;;;;;;;4.55;4.00;;;;;;;;;;5008604;28;20042;-51
2022/08/09 13:29:19;;;;;;;11.25;3.90;;;;;;;;;;5012326;28;20420;-49
2022/08/09 13:32:05;;;;;;;7.25;3.47;;;;;;;;;;5011215;28;20065;-48
2022/08/09 13:34:36;;;;;;;5.55;3.80;;;;;;;;;;5010316;28;20025;-49
2022/08/09 13:37:04;;;;;;;12.20;4.53;;;;;;;;;;5010942;28;20373;-51
2022/08/09 13:39:30;;;;;;;8.50;4.20;;;;;;;;;;5010356;28;20548;-50
2022/08/09 13:42:07;;;;;;;7.93;4.43;;;;;;;;;;5010098;28;20032;-50
2022/08/09 13:44:33;;;;;;;6.57;4.05;;;;;;;;;;5010282;28;20034;-49
2022/08/09 13:47:00;;;;;;;6.40;4.25;;;;;;;;;;5010032;28;20369;-50
2022/08/09 13:49:25;;;;;;;5.63;3.85;;;;;;;;;;5010539;28;20112;-49
2022/08/09 13:51:51;;;;;;;3.83;3.25;;;;;;;;;;5010114;28;20496;-52
2022/08/09 13:54:16;;;;;;;5.38;3.65;;;;;;;;;;5009290;28;20124;-50
2022/08/09 13:56:42;;;;;;;7.80;4.60;;;;;;;;;;5009651;28;20041;-46
2022/08/09 13:59:08;;;;;;;3.80;3.45;;;;;;;;;;5010089;28;20160;-48
2022/08/09 14:01:35;;;;;;;6.35;3.85;;;;;;;;;;5009626;28;20053;-50
2022/08/09 14:04:01;;;;;;;6.15;3.83;;;;;;;;;;5010048;28;20037;-51
2022/08/09 14:06:26;;;;;;;5.95;3.65;;;;;;;;;;5010226;28;20045;-50
2022/08/09 14:08:52;;;;;;;4.05;3.30;;;;;;;;;;5010151;28;20384;-50
2022/08/09 14:11:18;;;;;;;5.13;3.45;;;;;;;;;;5010268;28;20457;-52
2022/08/09 14:13:43;;;;;;;4.18;3.22;;;;;;;;;;5009827;28;20030;-52
2022/08/09 14:16:11;;;;;;;5.78;3.55;;;;;;;;;;5009804;28;20128;-47
2022/08/09 14:18:42;;;;;;;7.95;3.45;;;;;;;;;;5009911;28;20437;-48
2022/08/09 14:21:08;;;;;;;3.63;2.97;;;;;;;;;;5009876;28;20033;-49
2022/08/09 14:23:34;;;;;;;5.68;3.47;;;;;;;;;;5009888;28;20033;-50
2022/08/09 14:26:00;;;;;;;4.53;3.55;;;;;;;;;;5009949;28;20053;-47
2022/08/09 14:28:25;;;;;;;5.95;3.33;;;;;;;;;;5009967;28;20432;-50
2022/08/09 14:30:51;;;;;;;15.18;3.97;;;;;;;;;;4991303;28;20469;-48
2022/08/09 14:33:16;;;;;;;6.95;3.60;;;;;;;;;;5009741;28;20033;-46
2022/08/09 14:35:42;;;;;;;4.90;3.40;;;;;;;;;;5009892;28;20387;-49
2022/08/09 14:38:07;;;;;;;3.65;3.35;;;;;;;;;;5009945;28;20059;-44
2022/08/09 14:40:36;;;;;;;4.95;3.42;;;;;;;;;;5009438;28;20084;-46
2022/08/09 14:43:03;;;;;;;5.35;3.38;;;;;;;;;;5009367;28;20030;-46
2022/08/09 14:45:29;;;;;;;5.85;3.33;;;;;;;;;;5010293;28;20037;-49
2022/08/09 14:47:55;;;;;;;4.07;3.70;;;;;;;;;;4993343;28;20117;-48